sensor_id;sensor_type;location;lat;lon;timestamp;P1;durP1;ratioP1;P2;durP2;ratioP2
14754;SDS011;7469;50.906;6.952;2023-02-01T00:00:52;11.07;;;5.60;;
14754;SDS011;7469;50.906;6.952;2023-02-01T00:03:21;15.47;;;6.00;;
14754;SDS011;7469;50.906;6.952;2023-02-01T00:05:56;14.83;;;5.37;;
14754;SDS011;7469;50.906;6.952;2023-02-01T00:08:24;10.23;;;5.30;;
14754;SDS011;7469;50.906;6.952;2023-02-01T00:10:57;10.63;;;5.30;;
14754;SDS011;7469;50.906;6.952;2023-02-01T00:13:27;17.07;;;5.27;;
14754;SDS011;7469;50.906;6.952;2023-02-01T00:16:02;16.07;;;6.00;;
14754;SDS011;7469;50.906;6.952;2023-02-01T00:18:31;10.70;;;5.37;;
14754;SDS011;7469;50.906;6.952;2023-02-01T00:21:00;11.57;;;5.03;;
14754;SDS011;7469;50.906;6.952;2023-02-01T00:23:28;13.63;;;5.37;;
14754;SDS011;7469;50.906;6.952;2023-02-01T00:25:59;14.80;;;5.60;;
14754;SDS011;7469;50.906;6.952;2023-02-01T00:28:27;14.77;;;4.70;;
14754;SDS011;7469;50.906;6.952;2023-02-01T00:30:56;11.23;;;4.80;;
14754;SDS011;7469;50.906;6.952;2023-02-01T00:33:24;22.07;;;5.23;;
14754;SDS011;7469;50.906;6.952;2023-02-01T00:35:56;12.97;;;5.27;;
14754;SDS011;7469;50.906;6.952;2023-02-01T00:38:25;10.07;;;4.73;;
14754;SDS011;7469;50.906;6.952;2023-02-01T00:40:54;14.50;;;4.90;;
14754;SDS011;7469;50.906;6.952;2023-02-01T00:43:22;9.60;;;4.87;;
14754;SDS011;7469;50.906;6.952;2023-02-01T00:45:50;12.93;;;4.67;;
14754;SDS011;7469;50.906;6.952;2023-02-01T00:48:18;12.83;;;4.40;;
14754;SDS011;7469;50.906;6.952;2023-02-01T00:50:46;14.60;;;4.07;;
14754;SDS011;7469;50.906;6.952;2023-02-01T00:53:15;15.13;;;4.30;;
14754;SDS011;7469;50.906;6.952;2023-02-01T00:55:44;13.90;;;4.57;;
14754;SDS011;7469;50.906;6.952;2023-02-01T00:58:12;12.30;;;4.77;;
14754;SDS011;7469;50.906;6.952;2023-02-01T01:00:40;14.87;;;4.50;;
14754;SDS011;7469;50.906;6.952;2023-02-01T01:03:08;11.53;;;4.03;;
14754;SDS011;7469;50.906;6.952;2023-02-01T01:05:44;12.13;;;4.10;;
14754;SDS011;7469;50.906;6.952;2023-02-01T01:08:12;14.57;;;4.43;;
14754;SDS011;7469;50.906;6.952;2023-02-01T01:10:43;12.77;;;4.00;;
14754;SDS011;7469;50.906;6.952;2023-02-01T01:13:12;13.40;;;3.40;;
14754;SDS011;7469;50.906;6.952;2023-02-01T01:15:40;13.17;;;3.40;;
14754;SDS011;7469;50.906;6.952;2023-02-01T01:18:08;11.87;;;4.07;;
14754;SDS011;7469;50.906;6.952;2023-02-01T01:20:37;8.80;;;3.87;;
14754;SDS011;7469;50.906;6.952;2023-02-01T01:23:07;13.47;;;3.43;;
14754;SDS011;7469;50.906;6.952;2023-02-01T01:25:38;11.60;;;3.20;;
14754;SDS011;7469;50.906;6.952;2023-02-01T01:28:06;15.27;;;3.50;;
14754;SDS011;7469;50.906;6.952;2023-02-01T01:30:34;11.40;;;3.20;;
14754;SDS011;7469;50.906;6.952;2023-02-01T01:33:02;13.83;;;3.43;;
14754;SDS011;7469;50.906;6.952;2023-02-01T01:35:31;14.43;;;3.60;;
14754;SDS011;7469;50.906;6.952;2023-02-01T01:37:59;13.53;;;3.10;;
14754;SDS011;7469;50.906;6.952;2023-02-01T01:40:28;7.40;;;3.20;;
14754;SDS011;7469;50.906;6.952;2023-02-01T01:42:59;14.67;;;3.17;;
14754;SDS011;7469;50.906;6.952;2023-02-01T01:45:27;12.07;;;2.63;;
14754;SDS011;7469;50.906;6.952;2023-02-01T01:47:57;14.23;;;3.37;;
14754;SDS011;7469;50.906;6.952;2023-02-01T01:50:30;11.67;;;3.03;;
14754;SDS011;7469;50.906;6.952;2023-02-01T01:53:01;12.13;;;3.00;;
14754;SDS011;7469;50.906;6.952;2023-02-01T01:55:32;8.57;;;2.77;;
14754;SDS011;7469;50.906;6.952;2023-02-01T01:58:06;9.20;;;2.80;;
14754;SDS011;7469;50.906;6.952;2023-02-01T02:00:37;14.17;;;2.60;;
14754;SDS011;7469;50.906;6.952;2023-02-01T02:03:07;8.40;;;2.70;;
14754;SDS011;7469;50.906;6.952;2023-02-01T02:05:41;16.40;;;3.40;;
14754;SDS011;7469;50.906;6.952;2023-02-01T02:08:09;12.23;;;3.17;;
14754;SDS011;7469;50.906;6.952;2023-02-01T02:10:37;10.30;;;2.73;;
14754;SDS011;7469;50.906;6.952;2023-02-01T02:13:24;13.47;;;2.87;;
14754;SDS011;7469;50.906;6.952;2023-02-01T02:15:57;12.47;;;4.00;;
14754;SDS011;7469;50.906;6.952;2023-02-01T02:18:43;11.93;;;3.20;;
14754;SDS011;7469;50.906;6.952;2023-02-01T02:21:17;14.37;;;2.90;;
14754;SDS011;7469;50.906;6.952;2023-02-01T02:27:06;11.90;;;2.97;;
14754;SDS011;7469;50.906;6.952;2023-02-01T02:29:59;9.60;;;2.87;;
14754;SDS011;7469;50.906;6.952;2023-02-01T02:32:50;10.97;;;3.27;;
14754;SDS011;7469;50.906;6.952;2023-02-01T02:35:38;10.03;;;3.07;;
14754;SDS011;7469;50.906;6.952;2023-02-01T02:38:15;9.73;;;3.40;;
14754;SDS011;7469;50.906;6.952;2023-02-01T02:40:53;14.63;;;3.83;;
14754;SDS011;7469;50.906;6.952;2023-02-01T02:43:31;12.13;;;3.57;;
14754;SDS011;7469;50.906;6.952;2023-02-01T02:46:22;9.93;;;3.33;;
14754;SDS011;7469;50.906;6.952;2023-02-01T02:49:12;13.47;;;3.60;;
14754;SDS011;7469;50.906;6.952;2023-02-01T02:51:48;11.87;;;4.07;;
14754;SDS011;7469;50.906;6.952;2023-02-01T02:54:36;12.80;;;3.73;;
14754;SDS011;7469;50.906;6.952;2023-02-01T02:57:16;11.70;;;3.57;;
14754;SDS011;7469;50.906;6.952;2023-02-01T03:00:05;10.77;;;3.40;;
14754;SDS011;7469;50.906;6.952;2023-02-01T03:02:54;18.50;;;4.10;;
14754;SDS011;7469;50.906;6.952;2023-02-01T03:05:40;13.93;;;4.00;;
14754;SDS011;7469;50.906;6.952;2023-02-01T03:08:13;13.20;;;4.27;;
14754;SDS011;7469;50.906;6.952;2023-02-01T03:10:49;10.07;;;4.13;;
14754;SDS011;7469;50.906;6.952;2023-02-01T03:13:24;14.43;;;4.13;;
14754;SDS011;7469;50.906;6.952;2023-02-01T03:15:57;14.67;;;4.23;;
14754;SDS011;7469;50.906;6.952;2023-02-01T03:18:36;13.87;;;4.00;;
14754;SDS011;7469;50.906;6.952;2023-02-01T03:21:10;13.70;;;3.77;;
14754;SDS011;7469;50.906;6.952;2023-02-01T03:23:44;20.70;;;4.83;;
14754;SDS011;7469;50.906;6.952;2023-02-01T03:26:14;9.97;;;3.77;;
14754;SDS011;7469;50.906;6.952;2023-02-01T03:28:47;12.10;;;3.83;;
14754;SDS011;7469;50.906;6.952;2023-02-01T03:31:19;12.30;;;4.40;;
14754;SDS011;7469;50.906;6.952;2023-02-01T03:33:48;11.73;;;4.20;;
14754;SDS011;7469;50.906;6.952;2023-02-01T03:36:18;13.50;;;4.17;;
14754;SDS011;7469;50.906;6.952;2023-02-01T03:38:58;13.13;;;4.47;;
14754;SDS011;7469;50.906;6.952;2023-02-01T03:41:33;14.73;;;3.93;;
14754;SDS011;7469;50.906;6.952;2023-02-01T03:44:06;12.23;;;3.60;;
14754;SDS011;7469;50.906;6.952;2023-02-01T03:46:42;13.97;;;4.00;;
14754;SDS011;7469;50.906;6.952;2023-02-01T03:49:15;16.43;;;4.00;;
14754;SDS011;7469;50.906;6.952;2023-02-01T03:51:47;12.83;;;3.90;;
14754;SDS011;7469;50.906;6.952;2023-02-01T03:54:19;14.03;;;3.63;;
14754;SDS011;7469;50.906;6.952;2023-02-01T03:56:47;8.53;;;3.43;;
14754;SDS011;7469;50.906;6.952;2023-02-01T03:59:17;13.57;;;3.97;;
14754;SDS011;7469;50.906;6.952;2023-02-01T04:01:46;16.10;;;3.97;;
14754;SDS011;7469;50.906;6.952;2023-02-01T04:04:14;14.60;;;3.87;;
14754;SDS011;7469;50.906;6.952;2023-02-01T04:06:46;17.97;;;4.10;;
14754;SDS011;7469;50.906;6.952;2023-02-01T04:09:14;14.07;;;3.97;;
14754;SDS011;7469;50.906;6.952;2023-02-01T04:11:44;12.37;;;3.40;;
14754;SDS011;7469;50.906;6.952;2023-02-01T04:14:12;13.17;;;3.80;;
14754;SDS011;7469;50.906;6.952;2023-02-01T04:16:40;18.87;;;4.43;;
14754;SDS011;7469;50.906;6.952;2023-02-01T04:19:08;12.53;;;3.57;;
14754;SDS011;7469;50.906;6.952;2023-02-01T04:21:36;18.10;;;4.33;;
14754;SDS011;7469;50.906;6.952;2023-02-01T04:24:04;17.87;;;4.43;;
14754;SDS011;7469;50.906;6.952;2023-02-01T04:26:33;18.30;;;4.47;;
14754;SDS011;7469;50.906;6.952;2023-02-01T04:29:02;12.20;;;3.47;;
14754;SDS011;7469;50.906;6.952;2023-02-01T04:31:30;17.70;;;4.23;;
14754;SDS011;7469;50.906;6.952;2023-02-01T04:33:58;11.57;;;3.63;;
14754;SDS011;7469;50.906;6.952;2023-02-01T04:36:26;17.13;;;4.03;;
14754;SDS011;7469;50.906;6.952;2023-02-01T04:38:54;11.30;;;3.77;;
14754;SDS011;7469;50.906;6.952;2023-02-01T04:41:22;16.03;;;3.80;;
14754;SDS011;7469;50.906;6.952;2023-02-01T04:43:50;15.97;;;4.67;;
14754;SDS011;7469;50.906;6.952;2023-02-01T04:46:20;17.30;;;4.13;;
14754;SDS011;7469;50.906;6.952;2023-02-01T04:48:48;15.27;;;4.20;;
14754;SDS011;7469;50.906;6.952;2023-02-01T04:51:16;16.80;;;3.97;;
14754;SDS011;7469;50.906;6.952;2023-02-01T04:53:44;13.90;;;3.83;;
14754;SDS011;7469;50.906;6.952;2023-02-01T04:56:13;11.33;;;3.60;;
14754;SDS011;7469;50.906;6.952;2023-02-01T04:58:41;12.47;;;3.60;;
14754;SDS011;7469;50.906;6.952;2023-02-01T05:01:09;12.13;;;4.10;;
14754;SDS011;7469;50.906;6.952;2023-02-01T05:03:38;13.97;;;4.13;;
14754;SDS011;7469;50.906;6.952;2023-02-01T05:06:06;16.83;;;4.43;;
14754;SDS011;7469;50.906;6.952;2023-02-01T05:08:34;13.33;;;4.20;;
14754;SDS011;7469;50.906;6.952;2023-02-01T05:11:04;14.93;;;4.20;;
14754;SDS011;7469;50.906;6.952;2023-02-01T05:13:32;15.87;;;4.27;;
14754;SDS011;7469;50.906;6.952;2023-02-01T05:16:14;18.27;;;3.53;;
14754;SDS011;7469;50.906;6.952;2023-02-01T05:18:43;14.77;;;4.13;;
14754;SDS011;7469;50.906;6.952;2023-02-01T05:21:12;14.23;;;3.67;;
14754;SDS011;7469;50.906;6.952;2023-02-01T05:23:40;16.47;;;3.47;;
14754;SDS011;7469;50.906;6.952;2023-02-01T05:26:22;18.07;;;3.93;;
14754;SDS011;7469;50.906;6.952;2023-02-01T05:28:50;10.00;;;3.57;;
14754;SDS011;7469;50.906;6.952;2023-02-01T05:31:18;18.67;;;4.13;;
14754;SDS011;7469;50.906;6.952;2023-02-01T05:33:48;12.33;;;3.13;;
14754;SDS011;7469;50.906;6.952;2023-02-01T05:36:16;15.23;;;3.40;;
14754;SDS011;7469;50.906;6.952;2023-02-01T05:38:44;10.97;;;3.30;;
14754;SDS011;7469;50.906;6.952;2023-02-01T05:41:12;13.07;;;2.80;;
14754;SDS011;7469;50.906;6.952;2023-02-01T05:43:40;15.73;;;3.27;;
14754;SDS011;7469;50.906;6.952;2023-02-01T05:46:07;8.60;;;2.60;;
14754;SDS011;7469;50.906;6.952;2023-02-01T05:48:36;9.07;;;2.63;;
14754;SDS011;7469;50.906;6.952;2023-02-01T05:51:06;17.10;;;3.23;;
14754;SDS011;7469;50.906;6.952;2023-02-01T05:53:34;14.20;;;2.80;;
14754;SDS011;7469;50.906;6.952;2023-02-01T05:56:02;14.60;;;3.10;;
14754;SDS011;7469;50.906;6.952;2023-02-01T05:58:31;14.80;;;2.70;;
14754;SDS011;7469;50.906;6.952;2023-02-01T06:00:59;13.47;;;3.20;;
14754;SDS011;7469;50.906;6.952;2023-02-01T06:03:27;17.10;;;2.93;;
14754;SDS011;7469;50.906;6.952;2023-02-01T06:05:56;16.57;;;2.93;;
14754;SDS011;7469;50.906;6.952;2023-02-01T06:08:25;15.50;;;3.83;;
14754;SDS011;7469;50.906;6.952;2023-02-01T06:10:57;12.90;;;2.60;;
14754;SDS011;7469;50.906;6.952;2023-02-01T06:13:25;12.37;;;3.27;;
14754;SDS011;7469;50.906;6.952;2023-02-01T06:15:53;11.63;;;2.83;;
14754;SDS011;7469;50.906;6.952;2023-02-01T06:18:22;14.40;;;3.20;;
14754;SDS011;7469;50.906;6.952;2023-02-01T06:20:53;14.83;;;3.23;;
14754;SDS011;7469;50.906;6.952;2023-02-01T06:23:22;13.33;;;3.30;;
14754;SDS011;7469;50.906;6.952;2023-02-01T06:25:52;10.93;;;3.00;;
14754;SDS011;7469;50.906;6.952;2023-02-01T06:28:20;12.73;;;2.70;;
14754;SDS011;7469;50.906;6.952;2023-02-01T06:30:49;14.90;;;2.77;;
14754;SDS011;7469;50.906;6.952;2023-02-01T06:33:17;16.93;;;3.50;;
14754;SDS011;7469;50.906;6.952;2023-02-01T06:35:45;14.13;;;3.40;;
14754;SDS011;7469;50.906;6.952;2023-02-01T06:38:13;11.23;;;3.00;;
14754;SDS011;7469;50.906;6.952;2023-02-01T06:40:41;12.13;;;2.93;;
14754;SDS011;7469;50.906;6.952;2023-02-01T06:43:11;8.77;;;2.77;;
14754;SDS011;7469;50.906;6.952;2023-02-01T06:45:39;16.80;;;3.50;;
14754;SDS011;7469;50.906;6.952;2023-02-01T06:48:08;18.67;;;3.33;;
14754;SDS011;7469;50.906;6.952;2023-02-01T06:50:35;13.70;;;3.27;;
14754;SDS011;7469;50.906;6.952;2023-02-01T06:53:03;15.60;;;3.50;;
14754;SDS011;7469;50.906;6.952;2023-02-01T06:55:31;11.00;;;3.30;;
14754;SDS011;7469;50.906;6.952;2023-02-01T06:57:59;11.93;;;2.90;;
14754;SDS011;7469;50.906;6.952;2023-02-01T07:00:29;11.67;;;2.87;;
14754;SDS011;7469;50.906;6.952;2023-02-01T07:02:57;15.50;;;3.27;;
14754;SDS011;7469;50.906;6.952;2023-02-01T07:05:26;12.23;;;3.07;;
14754;SDS011;7469;50.906;6.952;2023-02-01T07:07:54;14.80;;;2.97;;
14754;SDS011;7469;50.906;6.952;2023-02-01T07:10:22;20.23;;;2.30;;
14754;SDS011;7469;50.906;6.952;2023-02-01T07:12:50;14.73;;;3.03;;
14754;SDS011;7469;50.906;6.952;2023-02-01T07:15:18;14.27;;;3.27;;
14754;SDS011;7469;50.906;6.952;2023-02-01T07:17:48;13.90;;;2.60;;
14754;SDS011;7469;50.906;6.952;2023-02-01T07:20:17;19.40;;;3.80;;
14754;SDS011;7469;50.906;6.952;2023-02-01T07:22:45;12.37;;;3.30;;
14754;SDS011;7469;50.906;6.952;2023-02-01T07:25:13;13.70;;;3.13;;
14754;SDS011;7469;50.906;6.952;2023-02-01T07:27:41;13.70;;;2.83;;
14754;SDS011;7469;50.906;6.952;2023-02-01T07:30:09;15.10;;;3.63;;
14754;SDS011;7469;50.906;6.952;2023-02-01T07:32:39;12.00;;;3.07;;
14754;SDS011;7469;50.906;6.952;2023-02-01T07:35:09;12.43;;;3.03;;
14754;SDS011;7469;50.906;6.952;2023-02-01T07:37:36;12.43;;;3.40;;
14754;SDS011;7469;50.906;6.952;2023-02-01T07:40:05;14.03;;;3.40;;
14754;SDS011;7469;50.906;6.952;2023-02-01T07:42:33;15.73;;;3.60;;
14754;SDS011;7469;50.906;6.952;2023-02-01T07:45:01;16.77;;;3.47;;
14754;SDS011;7469;50.906;6.952;2023-02-01T07:47:46;16.63;;;3.20;;
14754;SDS011;7469;50.906;6.952;2023-02-01T07:50:15;14.37;;;3.20;;
14754;SDS011;7469;50.906;6.952;2023-02-01T07:52:43;16.67;;;3.53;;
14754;SDS011;7469;50.906;6.952;2023-02-01T07:55:11;15.67;;;3.47;;
14754;SDS011;7469;50.906;6.952;2023-02-01T07:57:39;10.37;;;3.27;;
14754;SDS011;7469;50.906;6.952;2023-02-01T08:00:08;15.53;;;3.43;;
14754;SDS011;7469;50.906;6.952;2023-02-01T08:02:54;15.40;;;3.23;;
14754;SDS011;7469;50.906;6.952;2023-02-01T08:05:26;14.73;;;3.67;;
14754;SDS011;7469;50.906;6.952;2023-02-01T08:07:54;13.57;;;3.33;;
14754;SDS011;7469;50.906;6.952;2023-02-01T08:10:22;17.07;;;3.17;;
14754;SDS011;7469;50.906;6.952;2023-02-01T08:12:50;16.03;;;3.17;;
14754;SDS011;7469;50.906;6.952;2023-02-01T08:15:18;12.70;;;2.93;;
14754;SDS011;7469;50.906;6.952;2023-02-01T08:17:47;14.17;;;2.70;;
14754;SDS011;7469;50.906;6.952;2023-02-01T08:20:16;15.67;;;3.30;;
14754;SDS011;7469;50.906;6.952;2023-02-01T08:22:46;10.43;;;2.90;;
14754;SDS011;7469;50.906;6.952;2023-02-01T08:25:14;15.47;;;4.00;;
14754;SDS011;7469;50.906;6.952;2023-02-01T08:27:42;14.83;;;3.60;;
14754;SDS011;7469;50.906;6.952;2023-02-01T08:30:11;16.43;;;2.90;;
14754;SDS011;7469;50.906;6.952;2023-02-01T08:32:39;14.77;;;2.90;;
14754;SDS011;7469;50.906;6.952;2023-02-01T08:35:08;16.13;;;2.80;;
14754;SDS011;7469;50.906;6.952;2023-02-01T08:37:36;9.43;;;2.83;;
14754;SDS011;7469;50.906;6.952;2023-02-01T08:40:06;13.30;;;3.73;;
14754;SDS011;7469;50.906;6.952;2023-02-01T08:42:35;14.40;;;3.00;;
14754;SDS011;7469;50.906;6.952;2023-02-01T08:45:19;14.67;;;2.87;;
14754;SDS011;7469;50.906;6.952;2023-02-01T08:47:50;15.23;;;3.10;;
14754;SDS011;7469;50.906;6.952;2023-02-01T08:50:18;17.30;;;3.27;;
14754;SDS011;7469;50.906;6.952;2023-02-01T08:52:48;15.57;;;3.30;;
14754;SDS011;7469;50.906;6.952;2023-02-01T08:55:17;14.83;;;3.07;;
14754;SDS011;7469;50.906;6.952;2023-02-01T08:57:46;21.00;;;3.23;;
14754;SDS011;7469;50.906;6.952;2023-02-01T09:00:15;17.80;;;3.00;;
14754;SDS011;7469;50.906;6.952;2023-02-01T09:02:44;16.57;;;2.80;;
14754;SDS011;7469;50.906;6.952;2023-02-01T09:05:12;15.47;;;3.90;;
14754;SDS011;7469;50.906;6.952;2023-02-01T09:07:42;15.83;;;2.90;;
14754;SDS011;7469;50.906;6.952;2023-02-01T09:10:10;12.43;;;3.60;;
14754;SDS011;7469;50.906;6.952;2023-02-01T09:12:41;12.50;;;3.10;;
14754;SDS011;7469;50.906;6.952;2023-02-01T09:15:09;11.67;;;2.90;;
14754;SDS011;7469;50.906;6.952;2023-02-01T09:17:38;12.50;;;2.57;;
14754;SDS011;7469;50.906;6.952;2023-02-01T09:20:08;14.83;;;3.90;;
14754;SDS011;7469;50.906;6.952;2023-02-01T09:22:38;11.90;;;2.87;;
14754;SDS011;7469;50.906;6.952;2023-02-01T09:25:07;16.93;;;3.50;;
14754;SDS011;7469;50.906;6.952;2023-02-01T09:27:35;13.77;;;2.77;;
14754;SDS011;7469;50.906;6.952;2023-02-01T09:30:05;18.10;;;3.50;;
14754;SDS011;7469;50.906;6.952;2023-02-01T09:32:35;12.13;;;2.90;;
14754;SDS011;7469;50.906;6.952;2023-02-01T09:35:03;10.93;;;3.10;;
14754;SDS011;7469;50.906;6.952;2023-02-01T09:37:31;12.70;;;3.10;;
14754;SDS011;7469;50.906;6.952;2023-02-01T09:39:59;14.67;;;3.40;;
14754;SDS011;7469;50.906;6.952;2023-02-01T09:42:34;12.47;;;3.10;;
14754;SDS011;7469;50.906;6.952;2023-02-01T09:45:21;19.93;;;3.43;;
14754;SDS011;7469;50.906;6.952;2023-02-01T09:47:55;16.37;;;3.97;;
14754;SDS011;7469;50.906;6.952;2023-02-01T09:50:31;13.10;;;3.37;;
14754;SDS011;7469;50.906;6.952;2023-02-01T09:53:04;13.53;;;2.70;;
14754;SDS011;7469;50.906;6.952;2023-02-01T09:55:39;13.17;;;2.97;;
14754;SDS011;7469;50.906;6.952;2023-02-01T09:58:12;21.63;;;3.70;;
14754;SDS011;7469;50.906;6.952;2023-02-01T10:00:47;13.73;;;4.17;;
14754;SDS011;7469;50.906;6.952;2023-02-01T10:03:19;13.80;;;3.40;;
14754;SDS011;7469;50.906;6.952;2023-02-01T10:05:54;12.50;;;3.17;;
14754;SDS011;7469;50.906;6.952;2023-02-01T10:08:52;13.23;;;3.57;;
14754;SDS011;7469;50.906;6.952;2023-02-01T10:11:44;12.17;;;3.30;;
14754;SDS011;7469;50.906;6.952;2023-02-01T10:14:37;12.10;;;2.87;;
14754;SDS011;7469;50.906;6.952;2023-02-01T10:17:20;15.23;;;3.03;;
14754;SDS011;7469;50.906;6.952;2023-02-01T10:19:57;9.90;;;2.77;;
14754;SDS011;7469;50.906;6.952;2023-02-01T10:22:34;16.90;;;3.70;;
14754;SDS011;7469;50.906;6.952;2023-02-01T10:25:30;13.03;;;3.17;;
14754;SDS011;7469;50.906;6.952;2023-02-01T10:28:03;10.77;;;3.10;;
14754;SDS011;7469;50.906;6.952;2023-02-01T10:30:33;13.10;;;3.80;;
14754;SDS011;7469;50.906;6.952;2023-02-01T10:33:14;16.83;;;3.33;;
14754;SDS011;7469;50.906;6.952;2023-02-01T10:35:44;16.70;;;3.37;;
14754;SDS011;7469;50.906;6.952;2023-02-01T10:38:17;14.57;;;3.30;;
14754;SDS011;7469;50.906;6.952;2023-02-01T10:40:53;9.70;;;3.17;;
14754;SDS011;7469;50.906;6.952;2023-02-01T10:43:26;13.00;;;3.23;;
14754;SDS011;7469;50.906;6.952;2023-02-01T10:45:55;16.47;;;3.30;;
14754;SDS011;7469;50.906;6.952;2023-02-01T10:48:25;13.90;;;3.17;;
14754;SDS011;7469;50.906;6.952;2023-02-01T10:50:57;14.70;;;2.63;;
14754;SDS011;7469;50.906;6.952;2023-02-01T10:53:28;13.70;;;3.20;;
14754;SDS011;7469;50.906;6.952;2023-02-01T10:56:05;9.57;;;2.90;;
14754;SDS011;7469;50.906;6.952;2023-02-01T10:58:34;13.20;;;3.33;;
14754;SDS011;7469;50.906;6.952;2023-02-01T11:01:09;14.33;;;2.60;;
14754;SDS011;7469;50.906;6.952;2023-02-01T11:03:46;8.87;;;2.47;;
14754;SDS011;7469;50.906;6.952;2023-02-01T11:06:27;12.67;;;3.40;;
14754;SDS011;7469;50.906;6.952;2023-02-01T11:08:58;15.90;;;3.20;;
14754;SDS011;7469;50.906;6.952;2023-02-01T11:11:27;10.60;;;2.67;;
14754;SDS011;7469;50.906;6.952;2023-02-01T11:13:56;13.00;;;3.30;;
14754;SDS011;7469;50.906;6.952;2023-02-01T11:16:29;11.07;;;3.20;;
14754;SDS011;7469;50.906;6.952;2023-02-01T11:19:01;11.00;;;2.90;;
14754;SDS011;7469;50.906;6.952;2023-02-01T11:21:30;11.77;;;2.67;;
14754;SDS011;7469;50.906;6.952;2023-02-01T11:24:00;15.27;;;3.27;;
14754;SDS011;7469;50.906;6.952;2023-02-01T11:26:29;10.97;;;2.60;;
14754;SDS011;7469;50.906;6.952;2023-02-01T11:28:59;11.13;;;2.93;;
14754;SDS011;7469;50.906;6.952;2023-02-01T11:31:30;15.30;;;2.67;;
14754;SDS011;7469;50.906;6.952;2023-02-01T11:34:06;9.77;;;2.97;;
14754;SDS011;7469;50.906;6.952;2023-02-01T11:36:38;9.97;;;2.77;;
14754;SDS011;7469;50.906;6.952;2023-02-01T11:39:09;14.47;;;3.20;;
14754;SDS011;7469;50.906;6.952;2023-02-01T11:41:54;17.37;;;3.20;;
14754;SDS011;7469;50.906;6.952;2023-02-01T11:44:28;8.90;;;2.50;;
14754;SDS011;7469;50.906;6.952;2023-02-01T11:47:19;13.23;;;2.63;;
14754;SDS011;7469;50.906;6.952;2023-02-01T11:49:51;10.70;;;2.87;;
14754;SDS011;7469;50.906;6.952;2023-02-01T11:52:24;10.33;;;2.87;;
14754;SDS011;7469;50.906;6.952;2023-02-01T11:55:15;9.23;;;2.50;;
14754;SDS011;7469;50.906;6.952;2023-02-01T11:57:57;9.17;;;2.70;;
14754;SDS011;7469;50.906;6.952;2023-02-01T12:00:40;18.70;;;2.90;;
14754;SDS011;7469;50.906;6.952;2023-02-01T12:03:25;11.33;;;2.60;;
14754;SDS011;7469;50.906;6.952;2023-02-01T12:06:23;11.07;;;2.63;;
14754;SDS011;7469;50.906;6.952;2023-02-01T12:09:05;12.80;;;2.73;;
14754;SDS011;7469;50.906;6.952;2023-02-01T12:11:48;8.30;;;2.90;;
14754;SDS011;7469;50.906;6.952;2023-02-01T12:14:31;9.43;;;2.50;;
14754;SDS011;7469;50.906;6.952;2023-02-01T12:17:30;8.83;;;2.50;;
14754;SDS011;7469;50.906;6.952;2023-02-01T12:20:21;14.77;;;2.60;;
14754;SDS011;7469;50.906;6.952;2023-02-01T12:23:30;12.97;;;3.03;;
14754;SDS011;7469;50.906;6.952;2023-02-01T12:26:17;12.10;;;3.07;;
14754;SDS011;7469;50.906;6.952;2023-02-01T12:29:07;10.23;;;2.33;;
14754;SDS011;7469;50.906;6.952;2023-02-01T12:32:01;8.67;;;2.90;;
14754;SDS011;7469;50.906;6.952;2023-02-01T12:37:44;9.47;;;2.70;;
14754;SDS011;7469;50.906;6.952;2023-02-01T12:40:28;7.97;;;2.20;;
14754;SDS011;7469;50.906;6.952;2023-02-01T12:43:11;11.17;;;2.93;;
14754;SDS011;7469;50.906;6.952;2023-02-01T12:45:49;13.33;;;2.80;;
14754;SDS011;7469;50.906;6.952;2023-02-01T12:48:25;12.27;;;2.90;;
14754;SDS011;7469;50.906;6.952;2023-02-01T12:50:58;15.60;;;3.47;;
14754;SDS011;7469;50.906;6.952;2023-02-01T12:53:31;13.73;;;2.50;;
14754;SDS011;7469;50.906;6.952;2023-02-01T12:56:26;8.73;;;2.53;;
14754;SDS011;7469;50.906;6.952;2023-02-01T12:59:01;10.33;;;2.97;;
14754;SDS011;7469;50.906;6.952;2023-02-01T13:01:33;12.07;;;2.83;;
14754;SDS011;7469;50.906;6.952;2023-02-01T13:04:05;21.63;;;2.87;;
14754;SDS011;7469;50.906;6.952;2023-02-01T13:06:41;10.97;;;2.63;;
14754;SDS011;7469;50.906;6.952;2023-02-01T13:09:15;14.23;;;3.60;;
14754;SDS011;7469;50.906;6.952;2023-02-01T13:11:52;11.07;;;2.30;;
14754;SDS011;7469;50.906;6.952;2023-02-01T13:14:25;13.23;;;2.83;;
14754;SDS011;7469;50.906;6.952;2023-02-01T13:16:58;11.00;;;2.67;;
14754;SDS011;7469;50.906;6.952;2023-02-01T13:19:31;19.03;;;2.60;;
14754;SDS011;7469;50.906;6.952;2023-02-01T13:22:10;10.40;;;2.90;;
14754;SDS011;7469;50.906;6.952;2023-02-01T13:24:44;9.80;;;3.17;;
14754;SDS011;7469;50.906;6.952;2023-02-01T13:27:16;13.37;;;2.90;;
14754;SDS011;7469;50.906;6.952;2023-02-01T13:29:46;13.13;;;2.97;;
14754;SDS011;7469;50.906;6.952;2023-02-01T13:32:24;10.70;;;2.53;;
14754;SDS011;7469;50.906;6.952;2023-02-01T13:41:39;10.73;;;2.47;;
14754;SDS011;7469;50.906;6.952;2023-02-01T13:44:19;8.33;;;2.17;;
14754;SDS011;7469;50.906;6.952;2023-02-01T13:46:54;15.30;;;2.93;;
14754;SDS011;7469;50.906;6.952;2023-02-01T13:49:26;7.90;;;2.33;;
14754;SDS011;7469;50.906;6.952;2023-02-01T13:51:56;10.67;;;2.47;;
14754;SDS011;7469;50.906;6.952;2023-02-01T13:54:26;7.70;;;2.50;;
14754;SDS011;7469;50.906;6.952;2023-02-01T13:56:56;16.67;;;2.87;;
14754;SDS011;7469;50.906;6.952;2023-02-01T13:59:44;7.13;;;2.50;;
14754;SDS011;7469;50.906;6.952;2023-02-01T14:08:40;11.83;;;2.80;;
14754;SDS011;7469;50.906;6.952;2023-02-01T14:11:40;13.27;;;2.60;;
14754;SDS011;7469;50.906;6.952;2023-02-01T14:23:19;12.63;;;2.37;;
14754;SDS011;7469;50.906;6.952;2023-02-01T14:28:35;12.27;;;2.33;;
14754;SDS011;7469;50.906;6.952;2023-02-01T14:31:16;14.33;;;2.67;;
14754;SDS011;7469;50.906;6.952;2023-02-01T14:33:59;9.50;;;2.40;;
14754;SDS011;7469;50.906;6.952;2023-02-01T14:36:38;10.17;;;2.17;;
14754;SDS011;7469;50.906;6.952;2023-02-01T14:39:20;9.10;;;2.10;;
14754;SDS011;7469;50.906;6.952;2023-02-01T14:41:56;10.43;;;2.37;;
14754;SDS011;7469;50.906;6.952;2023-02-01T14:44:29;11.03;;;2.30;;
14754;SDS011;7469;50.906;6.952;2023-02-01T14:47:04;12.47;;;2.80;;
14754;SDS011;7469;50.906;6.952;2023-02-01T14:49:48;9.37;;;2.33;;
14754;SDS011;7469;50.906;6.952;2023-02-01T14:52:23;9.53;;;2.17;;
14754;SDS011;7469;50.906;6.952;2023-02-01T14:55:01;9.77;;;1.93;;
14754;SDS011;7469;50.906;6.952;2023-02-01T14:57:32;8.50;;;2.00;;
14754;SDS011;7469;50.906;6.952;2023-02-01T15:00:06;8.83;;;2.00;;
14754;SDS011;7469;50.906;6.952;2023-02-01T15:02:42;8.67;;;1.90;;
14754;SDS011;7469;50.906;6.952;2023-02-01T15:05:22;7.43;;;1.90;;
14754;SDS011;7469;50.906;6.952;2023-02-01T15:07:52;9.37;;;2.63;;
14754;SDS011;7469;50.906;6.952;2023-02-01T15:10:21;8.47;;;2.20;;
14754;SDS011;7469;50.906;6.952;2023-02-01T15:12:50;12.27;;;2.20;;
14754;SDS011;7469;50.906;6.952;2023-02-01T15:15:19;11.17;;;2.70;;
14754;SDS011;7469;50.906;6.952;2023-02-01T15:17:51;7.53;;;1.97;;
14754;SDS011;7469;50.906;6.952;2023-02-01T15:20:22;8.30;;;2.27;;
14754;SDS011;7469;50.906;6.952;2023-02-01T15:22:52;14.97;;;2.33;;
14754;SDS011;7469;50.906;6.952;2023-02-01T15:25:23;8.90;;;2.33;;
14754;SDS011;7469;50.906;6.952;2023-02-01T15:27:52;9.83;;;2.27;;
14754;SDS011;7469;50.906;6.952;2023-02-01T15:30:22;10.10;;;1.90;;
14754;SDS011;7469;50.906;6.952;2023-02-01T15:33:03;10.63;;;2.20;;
14754;SDS011;7469;50.906;6.952;2023-02-01T15:35:34;7.53;;;2.17;;
14754;SDS011;7469;50.906;6.952;2023-02-01T15:38:30;10.07;;;2.13;;
14754;SDS011;7469;50.906;6.952;2023-02-01T15:41:07;9.00;;;1.90;;
14754;SDS011;7469;50.906;6.952;2023-02-01T15:43:40;4.33;;;2.00;;
14754;SDS011;7469;50.906;6.952;2023-02-01T15:46:11;18.70;;;2.93;;
14754;SDS011;7469;50.906;6.952;2023-02-01T15:48:45;5.43;;;1.80;;
14754;SDS011;7469;50.906;6.952;2023-02-01T15:51:15;8.47;;;1.90;;
14754;SDS011;7469;50.906;6.952;2023-02-01T15:53:48;8.27;;;2.07;;
14754;SDS011;7469;50.906;6.952;2023-02-01T15:56:23;13.17;;;2.67;;